KOGD

Ogden-Hinckley Airport

Ogden, Utah, USA
METAR KOGD 280053Z 36003KT 10SM CLR 17/07 A2999 RMK AO2 SLP118 T01720067
Observed Flight Rules
May-28 @ 00:53 UTC (22 minutes ago) Visual Flight Rules
Wind Visibility Clouds
360° at 3 knots 10 miles
  • Clear skies
Temperatures Readings
Current 17°C / 63°F
Dewpoint 7°C / 45°F
Humidity 52%
Altimeter 29.99" Hg
Pressure 1011.8 hPa
Elevation 1353
METAR KOGD 280053Z 36003KT 10SM CLR 17/07 A2999 RMK AO2 SLP118 T01720067
Observed Flight Rules
May-28 @ 00:53 UTC
(22 minutes ago)
VFR
Wind Visibility
360° at 3 knots 10 miles
Clouds
  • Clear skies
Temperature Dewpoint
17°C / 63°F 7°C / 45°F
Humidity Altimeter Pressure
52% 29.99" Hg 1011.8 hPa